createdAt,value
2024-01-07T00:00:01.668Z,0.00
2024-01-07T00:10:01.548Z,0.00
2024-01-07T00:20:01.541Z,0.00
2024-01-07T00:30:01.324Z,0.00
2024-01-07T00:40:02.178Z,0.00
2024-01-07T00:50:01.125Z,0.00
2024-01-07T01:00:01.185Z,0.00
2024-01-07T01:10:01.158Z,0.00
2024-01-07T01:20:01.101Z,0.00
2024-01-07T01:30:01.099Z,0.00
2024-01-07T01:40:01.142Z,0.00
2024-01-07T01:50:01.349Z,0.00
2024-01-07T02:00:01.011Z,0.00
2024-01-07T02:10:01.901Z,0.00
2024-01-07T02:20:00.476Z,0.00
2024-01-07T02:30:00.404Z,0.00
2024-01-07T02:40:02.442Z,0.00
2024-01-07T02:50:01.978Z,0.00
2024-01-07T03:00:01.046Z,0.00
2024-01-07T03:10:01.752Z,0.00
2024-01-07T03:20:01.037Z,0.00
2024-01-07T03:30:01.662Z,0.00
2024-01-07T03:40:01.933Z,0.00
2024-01-07T03:50:01.113Z,0.00
2024-01-07T04:00:04.665Z,0.00
2024-01-07T04:10:01.034Z,0.00
2024-01-07T04:20:01.402Z,0.00
2024-01-07T04:30:01.325Z,0.00
2024-01-07T04:40:01.179Z,0.00
2024-01-07T04:50:02.775Z,0.00
2024-01-07T05:00:01.058Z,0.00
2024-01-07T05:10:02.506Z,0.00
2024-01-07T05:20:01.207Z,0.00
2024-01-07T05:30:00.468Z,0.00
2024-01-07T05:40:03.285Z,0.00
2024-01-07T05:50:01.153Z,0.00
2024-01-07T06:00:03.202Z,0.00
2024-01-07T06:10:01.238Z,0.00
2024-01-07T06:20:02.102Z,0.00
2024-01-07T06:30:01.645Z,0.00
2024-01-07T06:40:01.296Z,0.00
2024-01-07T06:50:02.382Z,1.67
2024-01-07T07:00:02.283Z,7.50
2024-01-07T07:10:01.664Z,20.83
2024-01-07T07:20:01.137Z,41.67
2024-01-07T07:30:01.526Z,75.00
2024-01-07T07:40:01.967Z,120.00
2024-01-07T07:50:01.706Z,140.00
2024-01-07T08:00:04.131Z,178.33
2024-01-07T08:10:02.218Z,252.50
2024-01-07T08:20:01.426Z,304.17
2024-01-07T08:30:01.905Z,321.67
2024-01-07T08:40:01.105Z,382.50
2024-01-07T08:50:01.505Z,645.83
2024-01-07T09:00:01.278Z,760.00
2024-01-07T09:10:02.208Z,782.50
2024-01-07T09:20:01.200Z,860.83
2024-01-07T09:30:01.966Z,1012.50
2024-01-07T09:40:01.103Z,960.00
2024-01-07T09:50:01.545Z,773.33
2024-01-07T10:00:03.302Z,975.00
2024-01-07T10:10:01.008Z,1003.33
2024-01-07T10:20:01.892Z,1031.67
2024-01-07T10:30:00.437Z,1029.17
2024-01-07T10:40:01.419Z,1135.00
2024-01-07T10:50:01.370Z,1054.17
2024-01-07T11:00:03.113Z,1147.50
2024-01-07T11:10:03.051Z,1377.50
2024-01-07T11:20:01.746Z,1112.50
2024-01-07T11:30:01.122Z,1111.67
2024-01-07T11:40:00.933Z,1139.17
2024-01-07T11:50:01.630Z,1135.00
2024-01-07T12:00:02.049Z,907.50
2024-01-07T12:10:01.333Z,800.00
2024-01-07T12:20:01.088Z,650.83
2024-01-07T12:30:02.031Z,870.83
2024-01-07T12:40:00.454Z,1021.67
2024-01-07T12:50:01.143Z,871.67
2024-01-07T13:00:02.511Z,480.00
2024-01-07T13:10:01.281Z,515.00
2024-01-07T13:20:01.244Z,490.00
2024-01-07T13:30:02.166Z,555.83
2024-01-07T13:40:01.144Z,390.00
2024-01-07T13:50:01.959Z,540.00
2024-01-07T14:00:01.518Z,440.00
2024-01-07T14:10:01.523Z,165.83
2024-01-07T14:20:01.934Z,138.33
2024-01-07T14:30:01.456Z,173.33
2024-01-07T14:40:00.532Z,95.00
2024-01-07T14:50:03.122Z,114.17
2024-01-07T15:00:01.224Z,58.33
2024-01-07T15:10:01.555Z,32.50
2024-01-07T15:20:01.348Z,9.17
2024-01-07T15:30:03.058Z,4.17
2024-01-07T15:50:01.306Z,0.00
2024-01-07T16:00:02.480Z,0.00
2024-01-07T16:10:01.714Z,0.00
2024-01-07T16:20:01.309Z,0.00
2024-01-07T16:30:01.155Z,0.00
2024-01-07T16:40:02.649Z,0.00
2024-01-07T16:50:18.112Z,0.00
2024-01-07T17:00:01.054Z,0.00
2024-01-07T17:10:03.353Z,0.00
2024-01-07T17:20:02.004Z,0.00
2024-01-07T17:30:01.684Z,0.00
2024-01-07T17:40:01.321Z,0.00
2024-01-07T17:50:01.680Z,0.00
2024-01-07T18:00:01.146Z,0.00
2024-01-07T18:10:01.416Z,0.00
2024-01-07T18:20:01.292Z,0.00
2024-01-07T18:30:01.459Z,0.00
2024-01-07T18:40:04.448Z,0.00
2024-01-07T18:50:01.667Z,0.00
2024-01-07T19:00:01.707Z,0.00
2024-01-07T19:20:02.149Z,0.00
2024-01-07T19:30:01.469Z,0.00
2024-01-07T19:50:00.367Z,0.00
2024-01-07T20:00:01.989Z,0.00
2024-01-07T20:10:01.328Z,0.00
2024-01-07T20:20:01.092Z,0.00
2024-01-07T20:30:00.375Z,0.00
2024-01-07T20:50:01.192Z,0.00
2024-01-07T21:00:03.928Z,0.00
2024-01-07T21:10:01.406Z,0.00
2024-01-07T21:20:01.165Z,0.00
2024-01-07T21:30:01.961Z,0.00
2024-01-07T21:40:02.983Z,0.00
2024-01-07T21:50:01.285Z,0.00
2024-01-07T22:00:01.308Z,0.00
2024-01-07T22:10:00.970Z,0.00
2024-01-07T22:20:00.396Z,0.00
2024-01-07T22:30:01.086Z,0.00
2024-01-07T22:40:01.994Z,0.00
2024-01-07T22:50:01.662Z,0.00
2024-01-07T23:00:00.328Z,0.00
2024-01-07T23:10:00.323Z,0.00
2024-01-07T23:20:00.830Z,0.00
2024-01-07T23:30:01.443Z,0.00
2024-01-07T23:40:01.138Z,0.00
2024-01-07T23:50:00.397Z,0.00
